KMKC/MKC METAR and TAF weather

Enter ICAO airport designator
Station Type Date Time Source
KMKC METAR 2022/05/23 14:54 UTC NOAA

KMKC 231454Z 06009KT 10SM CLR 17/06 A3026 RMK AO2 SLP244 T01670061 56007


Station Type Date Time Source
KMKC Decoded METAR 2022/05/23 14:54 UTC NOAA

KANSAS CITY DOWNTOWN AIRPORT , MO, United States (KMKC) 39-07N 094-36W 227M
May 23, 2022 - 10:54 AM EDT / 2022.05.23 1454 UTC
Wind: from the ENE (060 degrees) at 10 MPH (9 KT):0
Visibility: 10 mile(s):0
Sky conditions: clear
Temperature: 62.1 F (16.7 C)
Dew Point: 43.0 F (6.1 C)
Relative Humidity: 49%
Pressure (altimeter): 30.26 in. Hg (1024 hPa)
Pressure tendency: 0.02 inches (0.7 hPa) lower than three hours ago
ob: KMKC 231454Z 06009KT 10SM CLR 17/06 A3026 RMK AO2 SLP244 T01670061 56007
cycle: 15

Station Type Date Time Source
KMKC TAF 2022/05/23 12:22 UTC NOAA

TAF KMKC 231120Z 2312/2412 09010KT P6SM BKN120
FM232200 08009KT P6SM OVC050
FM240600 07007KT P6SM -RA OVC035

Example: see airport list